Time;durP1;ratioP1;P1;durP2;ratioP2;P2;SDS_P1;SDS_P2;PMS_P1;PMS_P2;Temp;Humidity;BMP_temperature;BMP_pressure;BME280_temperature;BME280_humidity;BME280_pressure;Samples;Min_cycle;Max_cycle;Signal;HPM_P1;HPM_P2
2022/02/03 00:08:48;;;;;;;17.00;10.30;;;9.90;99.90;;;;;;4983098;28;20417;-78
2022/02/03 00:24:27;;;;;;;21.07;12.13;;;9.60;99.90;;;;;;5052689;28;20475;-77
2022/02/03 00:27:11;;;;;;;20.27;10.70;;;9.70;99.90;;;;;;5050744;28;20525;-77
2022/02/03 00:32:38;;;;;;;17.30;11.60;;;9.70;99.90;;;;;;5052586;28;20750;-78
2022/02/03 00:35:28;;;;;;;19.80;12.17;;;9.70;99.90;;;;;;5052507;28;20418;-77
2022/02/03 00:48:59;;;;;;;17.40;10.70;;;9.70;99.90;;;;;;5029766;28;20952;-82
2022/02/03 00:51:26;;;;;;;25.10;12.83;;;9.70;99.90;;;;;;5064261;28;20424;-81
2022/02/03 00:53:55;;;;;;;18.33;11.40;;;9.70;99.90;;;;;;5074241;28;20420;-81
2022/02/03 00:56:26;;;;;;;18.80;11.80;;;9.70;99.90;;;;;;5091702;28;20415;-81
2022/02/03 00:59:01;;;;;;;17.70;11.27;;;9.70;99.90;;;;;;5073890;28;20443;-81
2022/02/03 01:01:33;;;;;;;18.60;10.90;;;9.70;99.90;;;;;;5092247;28;20404;-82
2022/02/03 01:04:06;;;;;;;20.70;11.37;;;9.60;99.90;;;;;;5073872;28;20507;-81
2022/02/03 01:06:35;;;;;;;22.67;13.10;;;9.70;99.90;;;;;;5075661;28;20515;-81
2022/02/03 01:09:02;;;;;;;22.47;13.20;;;9.70;99.90;;;;;;5077405;28;20912;-81
2022/02/03 01:11:36;;;;;;;22.27;13.03;;;9.70;99.90;;;;;;5077459;28;20428;-82
2022/02/03 01:14:11;;;;;;;19.93;11.07;;;9.80;99.90;;;;;;5077752;28;20416;-82
2022/02/03 01:19:51;;;;;;;21.13;13.03;;;9.70;99.90;;;;;;5095848;28;20431;-81
2022/02/03 01:43:55;;;;;;;23.00;13.00;;;9.60;99.90;;;;;;5095326;28;20972;-82
2022/02/03 01:46:39;;;;;;;21.27;12.67;;;9.60;99.90;;;;;;5077861;28;20918;-81
2022/02/03 01:49:15;;;;;;;20.40;12.10;;;9.60;99.90;;;;;;5096818;28;20451;-81
2022/02/03 01:51:56;;;;;;;19.17;12.63;;;9.60;99.90;;;;;;5096807;28;20427;-81
2022/02/03 01:54:29;;;;;;;21.53;12.63;;;9.70;99.90;;;;;;5078338;28;20431;-82
2022/02/03 01:57:13;;;;;;;19.70;11.30;;;9.70;99.90;;;;;;5078336;28;20423;-81
2022/02/03 01:59:40;;;;;;;21.17;11.70;;;9.70;99.90;;;;;;5078240;28;20444;-82
2022/02/03 02:02:08;;;;;;;20.30;10.87;;;9.60;99.90;;;;;;5096044;28;20416;-81
2022/02/03 02:05:05;;;;;;;19.60;9.47;;;9.70;99.90;;;;;;5097095;28;20416;-82
2022/02/03 02:07:43;;;;;;;15.63;9.40;;;9.60;99.90;;;;;;5077597;28;20427;-81
2022/02/03 02:10:55;;;;;;;16.50;10.70;;;9.60;99.90;;;;;;5096153;28;20508;-82
2022/02/03 02:16:52;;;;;;;18.00;11.13;;;9.60;99.90;;;;;;5095377;28;20456;-81
2022/02/03 02:43:51;;;;;;;16.57;10.70;;;9.50;99.90;;;;;;5095229;28;20478;-82
2022/02/03 02:46:34;;;;;;;18.70;12.20;;;9.50;99.90;;;;;;5076918;28;20423;-82
2022/02/03 02:49:24;;;;;;;16.10;11.37;;;9.50;99.90;;;;;;5094435;28;20439;-81
2022/02/03 02:51:58;;;;;;;23.20;12.30;;;9.50;99.90;;;;;;5076930;28;20507;-82
2022/02/03 02:58:00;;;;;;;20.80;12.23;;;9.60;99.90;;;;;;5094223;28;20423;-82
2022/02/03 03:30:55;;;;;;;12.80;7.80;;;9.40;99.90;;;;;;5093832;28;20504;-81
2022/02/03 03:33:39;;;;;;;13.47;8.63;;;9.30;99.90;;;;;;5093899;28;20417;-82
2022/02/03 03:36:12;;;;;;;10.70;6.90;;;9.20;99.90;;;;;;5075206;28;20432;-82
2022/02/03 03:38:41;;;;;;;12.40;7.23;;;9.30;99.90;;;;;;5074397;28;20452;-82
2022/02/03 03:41:08;;;;;;;15.60;8.43;;;9.30;99.90;;;;;;5074878;28;20427;-82
2022/02/03 03:43:41;;;;;;;9.13;7.40;;;9.30;99.90;;;;;;5093116;28;20507;-81
2022/02/03 03:46:10;;;;;;;9.73;7.23;;;9.30;99.90;;;;;;5093115;28;20456;-81
2022/02/03 03:48:46;;;;;;;10.37;7.00;;;9.30;99.90;;;;;;5074621;28;20455;-81
2022/02/03 03:51:17;;;;;;;11.20;8.50;;;9.30;99.90;;;;;;5074862;28;20831;-82
2022/02/03 03:54:00;;;;;;;10.63;7.83;;;9.30;99.90;;;;;;5074839;28;20780;-81
2022/02/03 03:56:40;;;;;;;12.50;6.87;;;9.40;99.90;;;;;;5074641;28;20982;-82
2022/02/03 03:59:45;;;;;;;10.20;6.40;;;9.40;99.90;;;;;;5074455;28;20443;-81
2022/02/03 05:04:54;;;;;;;7.43;4.20;;;9.50;99.90;;;;;;5095754;28;20399;-81
2022/02/03 05:08:02;;;;;;;7.30;4.43;;;9.60;99.90;;;;;;5077414;28;20791;-80
2022/02/03 05:54:43;;;;;;;10.43;6.13;;;9.70;99.90;;;;;;5098531;28;20427;-83
2022/02/03 06:09:57;;;;;;;15.03;8.10;;;9.60;99.90;;;;;;5099376;28;20462;-83
2022/02/03 06:15:13;;;;;;;12.10;7.60;;;9.70;99.90;;;;;;5099283;28;20805;-83
2022/02/03 06:29:04;;;;;;;10.80;7.00;;;9.70;99.90;;;;;;5094178;28;20536;-81
2022/02/03 06:31:32;;;;;;;11.50;7.73;;;9.70;99.90;;;;;;5093716;28;20456;-82
2022/02/03 06:33:58;;;;;;;14.50;7.53;;;9.70;99.90;;;;;;5094051;28;20507;-81
2022/02/03 06:36:24;;;;;;;11.67;7.23;;;9.70;99.90;;;;;;5075630;28;20499;-82
2022/02/03 06:38:49;;;;;;;9.97;6.97;;;9.80;99.90;;;;;;5075573;28;20218;-81
2022/02/03 06:41:15;;;;;;;12.00;7.57;;;9.80;99.90;;;;;;5086116;22;20227;-79
2022/02/03 06:43:43;;;;;;;13.53;8.20;;;9.80;99.90;;;;;;5076996;28;20190;-79
2022/02/03 06:46:09;;;;;;;11.50;7.03;;;9.80;99.90;;;;;;5076406;28;20167;-79
2022/02/03 06:48:36;;;;;;;14.20;7.47;;;9.80;99.90;;;;;;5076017;28;20931;-79
2022/02/03 06:51:12;;;;;;;14.37;7.20;;;9.70;99.90;;;;;;5076051;28;20475;-79
2022/02/03 06:53:41;;;;;;;9.97;6.60;;;9.70;99.90;;;;;;5058123;28;20456;-79
2022/02/03 06:56:24;;;;;;;13.43;7.27;;;9.70;99.90;;;;;;5076055;28;20519;-79
2022/02/03 06:58:55;;;;;;;14.20;7.73;;;9.70;99.90;;;;;;5075833;28;20942;-79
2022/02/03 07:01:30;;;;;;;12.00;8.57;;;9.60;99.90;;;;;;5076112;28;21080;-79
2022/02/03 07:04:02;;;;;;;13.57;8.30;;;9.60;99.90;;;;;;5075196;28;20915;-79
2022/02/03 07:06:32;;;;;;;11.27;7.53;;;9.60;99.90;;;;;;5075455;28;20798;-79
2022/02/03 07:09:09;;;;;;;12.43;9.00;;;9.50;99.90;;;;;;5075431;28;20410;-79
2022/02/03 07:11:37;;;;;;;13.60;7.80;;;9.50;99.90;;;;;;5075064;28;20467;-79
2022/02/03 07:14:05;;;;;;;14.60;7.20;;;9.60;99.90;;;;;;5075544;28;20401;-79
2022/02/03 07:16:34;;;;;;;11.07;7.67;;;9.60;99.90;;;;;;5075009;28;20459;-79
2022/02/03 07:18:59;;;;;;;12.40;7.50;;;9.60;99.90;;;;;;5074858;28;20409;-79
2022/02/03 07:21:25;;;;;;;12.87;7.23;;;9.60;99.90;;;;;;5074628;28;20444;-78
2022/02/03 07:23:50;;;;;;;9.50;6.67;;;9.60;99.90;;;;;;5072706;28;20231;-78
2022/02/03 07:26:16;;;;;;;11.80;7.50;;;9.70;99.90;;;;;;5072350;28;20182;-78
2022/02/03 07:28:41;;;;;;;11.30;6.53;;;9.70;99.90;;;;;;5072473;28;20249;-78
2022/02/03 07:31:07;;;;;;;16.17;7.90;;;9.60;99.90;;;;;;5072256;28;20268;-78
2022/02/03 07:33:33;;;;;;;14.90;7.63;;;9.60;99.90;;;;;;5072476;28;20551;-78
2022/02/03 07:36:00;;;;;;;9.50;6.33;;;9.60;99.90;;;;;;5072664;28;20240;-78
2022/02/03 07:38:25;;;;;;;11.07;7.20;;;9.60;99.90;;;;;;5072150;28;20414;-78
2022/02/03 07:40:51;;;;;;;10.93;7.03;;;9.60;99.90;;;;;;5071967;28;20502;-78
2022/02/03 07:43:17;;;;;;;8.90;6.47;;;9.60;99.90;;;;;;5072224;28;20416;-78
2022/02/03 07:45:43;;;;;;;11.57;6.20;;;9.70;99.90;;;;;;5072303;28;20646;-78
2022/02/03 07:48:08;;;;;;;9.17;6.17;;;9.70;99.90;;;;;;5072076;28;20589;-78
2022/02/03 07:50:34;;;;;;;10.27;5.90;;;9.60;99.90;;;;;;5072049;28;20298;-78
2022/02/03 07:53:00;;;;;;;9.07;6.33;;;9.60;99.90;;;;;;5072032;28;20178;-78
2022/02/03 07:55:25;;;;;;;8.87;5.50;;;9.60;99.90;;;;;;5071955;28;20194;-78
2022/02/03 07:57:53;;;;;;;9.87;5.90;;;9.60;99.90;;;;;;5071670;28;20182;-78
2022/02/03 08:00:22;;;;;;;9.10;5.80;;;9.50;99.90;;;;;;5054087;28;20199;-78
2022/02/03 08:02:48;;;;;;;9.33;5.17;;;9.50;99.90;;;;;;5071969;28;20409;-78
2022/02/03 08:05:17;;;;;;;8.93;5.20;;;9.60;99.90;;;;;;5071884;28;20823;-78
2022/02/03 08:08:03;;;;;;;8.80;5.27;;;9.60;99.90;;;;;;5071535;28;20236;-78
2022/02/03 08:10:43;;;;;;;8.67;5.30;;;9.50;99.90;;;;;;5071829;28;20464;-78
2022/02/03 08:13:13;;;;;;;10.00;4.90;;;9.50;99.90;;;;;;5072982;28;20451;-78
2022/02/03 08:15:41;;;;;;;7.33;5.20;;;9.50;99.90;;;;;;5073382;28;20843;-79
2022/02/03 08:18:11;;;;;;;8.73;4.40;;;9.50;99.90;;;;;;5072836;28;20413;-79
2022/02/03 08:20:46;;;;;;;8.37;4.83;;;9.60;99.90;;;;;;5073729;28;20433;-79
2022/02/03 08:25:57;;;;;;;6.97;4.50;;;9.70;99.90;;;;;;5073544;28;20407;-78
2022/02/03 08:31:21;;;;;;;8.00;5.40;;;9.80;99.90;;;;;;5043836;28;20534;-79
2022/02/03 08:33:50;;;;;;;8.27;5.60;;;9.90;99.90;;;;;;5055150;28;20425;-79
2022/02/03 08:36:15;;;;;;;6.60;3.90;;;9.90;99.90;;;;;;5072719;28;20413;-78
2022/02/03 08:41:07;;;;;;;9.00;4.87;;;9.90;99.90;;;;;;5072534;28;20582;-79
2022/02/03 08:43:37;;;;;;;5.80;3.80;;;9.80;99.90;;;;;;5072757;28;20178;-78
2022/02/03 08:46:06;;;;;;;9.60;4.00;;;9.70;99.90;;;;;;5072809;28;20175;-78
2022/02/03 08:48:32;;;;;;;8.20;4.67;;;9.70;99.90;;;;;;5072663;28;20745;-79
2022/02/03 08:51:03;;;;;;;9.47;3.87;;;9.70;99.90;;;;;;5072765;28;20522;-79
2022/02/03 08:53:34;;;;;;;7.87;4.50;;;9.70;99.90;;;;;;5072978;28;20413;-78
2022/02/03 09:37:11;;;;;;;9.43;4.80;;;10.10;99.90;;;;;;5075159;28;20878;-78
2022/02/03 09:58:19;;;;;;;6.90;4.10;;;10.30;99.90;;;;;;5074534;28;20420;-78
2022/02/03 10:03:36;;;;;;;9.23;3.93;;;10.30;99.90;;;;;;5074877;28;20413;-79
2022/02/03 10:06:09;;;;;;;9.73;4.60;;;10.30;99.90;;;;;;5056798;28;20807;-79
2022/02/03 10:08:35;;;;;;;9.30;4.27;;;10.30;99.90;;;;;;5074491;28;20504;-78
2022/02/03 10:11:15;;;;;;;6.43;4.17;;;10.20;99.90;;;;;;5074280;28;20555;-79
2022/02/03 10:13:52;;;;;;;8.17;4.50;;;10.10;99.90;;;;;;5074416;28;20417;-78
2022/02/03 10:16:24;;;;;;;7.40;3.97;;;10.10;99.90;;;;;;5074308;28;20405;-78
2022/02/03 10:19:13;;;;;;;7.97;4.93;;;10.00;99.90;;;;;;5073912;28;20405;-78
2022/02/03 10:21:41;;;;;;;6.83;4.17;;;10.00;99.90;;;;;;5074045;28;20839;-78
2022/02/03 10:24:08;;;;;;;9.40;4.90;;;9.90;99.90;;;;;;5073878;28;20420;-78
2022/02/03 10:26:41;;;;;;;7.80;4.00;;;9.90;99.90;;;;;;5073662;28;20919;-78
2022/02/03 10:29:12;;;;;;;7.80;4.80;;;9.90;99.90;;;;;;5073839;28;20409;-78
2022/02/03 10:31:41;;;;;;;7.87;5.10;;;9.80;99.90;;;;;;5073632;28;20987;-78
2022/02/03 10:34:11;;;;;;;8.90;5.47;;;9.70;99.90;;;;;;5073616;28;20944;-78
2022/02/03 10:36:45;;;;;;;8.43;5.23;;;9.60;99.90;;;;;;5073449;28;20777;-78
2022/02/03 10:40:02;;;;;;;7.20;4.67;;;9.60;99.90;;;;;;5072328;28;20409;-78
2022/02/03 10:50:21;;;;;;;6.60;4.40;;;9.40;99.90;;;;;;5073240;28;20471;-78
2022/02/03 10:53:08;;;;;;;6.10;4.60;;;9.30;99.90;;;;;;5073540;28;20421;-78
2022/02/03 10:58:47;;;;;;;6.40;4.50;;;9.20;99.90;;;;;;5076260;28;20467;-79
2022/02/03 11:01:35;;;;;;;5.00;3.93;;;9.20;99.90;;;;;;5076601;28;20433;-79
2022/02/03 11:07:07;;;;;;;7.10;4.30;;;9.20;99.90;;;;;;5075682;28;20428;-78
2022/02/03 11:10:01;;;;;;;5.30;3.87;;;9.20;99.90;;;;;;5057365;28;20433;-79
2022/02/03 11:12:28;;;;;;;9.20;4.40;;;9.20;99.90;;;;;;5074961;28;20951;-78
2022/02/03 11:14:54;;;;;;;7.80;4.67;;;9.10;99.90;;;;;;5075710;28;20463;-79
2022/02/03 11:17:21;;;;;;;6.90;3.90;;;9.30;99.90;;;;;;5075180;28;20412;-79
2022/02/03 11:19:49;;;;;;;7.10;4.67;;;9.40;99.90;;;;;;5075221;28;20482;-79
2022/02/03 11:22:21;;;;;;;6.63;4.47;;;9.40;99.90;;;;;;5075317;28;20423;-79
2022/02/03 11:24:56;;;;;;;6.10;4.60;;;9.40;99.90;;;;;;5074830;28;20497;-79
2022/02/03 11:27:37;;;;;;;5.90;4.60;;;9.40;99.90;;;;;;5074540;28;20412;-79
2022/02/03 11:33:40;;;;;;;4.83;3.87;;;9.50;99.90;;;;;;5042953;28;20416;-79
2022/02/03 11:49:35;;;;;;;5.37;3.47;;;9.30;99.90;;;;;;5072748;28;20447;-78
2022/02/03 11:53:15;;;;;;;5.17;3.57;;;9.30;99.90;;;;;;5079521;28;20424;-78
2022/02/03 11:58:16;;;;;;;4.33;3.30;;;9.00;99.90;;;;;;5072587;28;20512;-78
2022/02/03 12:15:37;;;;;;;4.80;3.13;;;9.00;99.90;;;;;;5072029;28;20504;-78
2022/02/03 12:23:34;;;;;;;5.47;3.00;;;8.90;99.90;;;;;;5072001;28;20428;-78
2022/02/03 12:26:06;;;;;;;4.23;2.90;;;9.00;99.90;;;;;;5071836;28;20410;-78
2022/02/03 12:28:47;;;;;;;4.70;3.17;;;9.00;99.90;;;;;;5071751;28;20492;-79
2022/02/03 12:39:12;;;;;;;5.07;3.67;;;8.90;99.90;;;;;;5072069;28;20237;-78
2022/02/03 12:42:02;;;;;;;6.57;3.77;;;8.80;99.90;;;;;;5073523;28;20511;-78
2022/02/03 12:44:29;;;;;;;4.20;3.00;;;8.80;99.90;;;;;;5115997;22;20497;-83
2022/02/03 12:47:02;;;;;;;4.33;3.27;;;8.70;99.90;;;;;;5083847;28;20412;-83
2022/02/03 12:49:30;;;;;;;6.30;3.80;;;8.80;99.90;;;;;;5084841;28;20801;-83
2022/02/03 12:51:56;;;;;;;6.17;4.00;;;8.80;99.90;;;;;;5084340;28;20428;-84
2022/02/03 12:54:22;;;;;;;5.70;3.50;;;8.80;99.90;;;;;;5083194;28;20682;-84
2022/02/03 12:56:48;;;;;;;5.40;4.40;;;8.70;99.90;;;;;;5083099;28;20432;-84
2022/02/03 12:59:17;;;;;;;5.60;4.03;;;8.80;99.90;;;;;;5083178;28;20420;-83
2022/02/03 13:01:45;;;;;;;5.70;4.03;;;8.70;99.90;;;;;;5083880;28;20197;-84
2022/02/03 13:04:15;;;;;;;6.27;4.13;;;8.60;99.90;;;;;;5087062;28;20440;-84
2022/02/03 13:06:55;;;;;;;8.87;4.10;;;8.60;99.90;;;;;;5103226;28;20438;-84
2022/02/03 13:09:32;;;;;;;6.43;3.90;;;8.70;99.90;;;;;;5086256;28;20862;-84
2022/02/03 13:12:13;;;;;;;6.73;3.10;;;8.80;99.90;;;;;;5086414;28;20424;-84
2022/02/03 13:14:49;;;;;;;5.67;3.60;;;8.90;99.90;;;;;;5087134;28;20439;-82
2022/02/03 13:17:21;;;;;;;4.73;3.50;;;8.90;99.90;;;;;;5086721;28;20505;-84
2022/02/03 13:20:00;;;;;;;4.40;3.23;;;8.90;99.90;;;;;;5086485;28;20503;-84
2022/02/03 13:27:59;;;;;;;5.87;4.30;;;8.70;99.90;;;;;;5104139;28;20170;-82
2022/02/03 13:31:04;;;;;;;6.30;4.60;;;8.70;99.90;;;;;;5104126;28;20525;-82
2022/02/03 13:33:52;;;;;;;6.07;4.60;;;8.50;99.90;;;;;;5103553;28;20462;-82
2022/02/03 13:36:25;;;;;;;7.80;5.50;;;8.50;99.90;;;;;;5103129;28;20420;-84
2022/02/03 13:39:09;;;;;;;6.90;5.30;;;8.40;99.90;;;;;;5084722;28;20455;-84
2022/02/03 13:41:39;;;;;;;6.93;4.53;;;8.40;99.90;;;;;;5085922;28;20976;-82
2022/02/03 13:44:07;;;;;;;6.73;4.50;;;8.40;99.90;;;;;;5104241;28;20452;-83
2022/02/03 13:46:35;;;;;;;7.40;4.87;;;8.40;99.90;;;;;;5084818;28;20935;-83
2022/02/03 13:49:02;;;;;;;6.63;4.27;;;8.50;99.90;;;;;;5103324;28;20404;-83
2022/02/03 13:51:30;;;;;;;5.87;4.13;;;8.40;99.90;;;;;;5085684;28;20459;-84
2022/02/03 14:21:19;;;;;;;6.43;4.40;;;8.50;99.90;;;;;;5103480;28;20454;-82
2022/02/03 14:26:57;;;;;;;5.60;3.40;;;8.60;99.90;;;;;;5102781;28;20467;-82
2022/02/03 14:29:26;;;;;;;7.70;4.30;;;8.70;99.90;;;;;;5085045;28;20446;-84
2022/02/03 14:32:29;;;;;;;6.77;4.63;;;8.60;99.90;;;;;;5085504;28;20517;-84
2022/02/03 14:34:44;;;;;;;6.80;4.70;;;8.50;99.90;;;;;;5099665;28;20477;-82
2022/02/03 14:40:18;;;;;;;6.17;3.93;;;8.40;99.90;;;;;;5083023;28;20295;-84
2022/02/03 14:42:45;;;;;;;6.63;4.20;;;8.50;99.90;;;;;;5102645;28;20423;-83
2022/02/03 14:45:14;;;;;;;6.37;4.40;;;8.50;99.90;;;;;;5103059;28;20436;-84
2022/02/03 14:47:40;;;;;;;6.30;4.47;;;8.50;99.90;;;;;;5084730;28;20627;-84
2022/02/03 14:50:08;;;;;;;6.37;4.37;;;8.50;99.90;;;;;;5084957;28;20524;-83
2022/02/03 14:52:45;;;;;;;5.27;4.07;;;8.50;99.90;;;;;;5083423;28;20428;-84
2022/02/03 14:58:04;;;;;;;5.80;4.23;;;8.50;99.90;;;;;;5101500;28;20940;-83
2022/02/03 15:00:30;;;;;;;6.30;4.40;;;8.50;99.90;;;;;;5084726;28;20442;-84
2022/02/03 15:02:56;;;;;;;6.73;4.37;;;8.40;99.90;;;;;;5084029;28;20594;-83
2022/02/03 15:05:26;;;;;;;7.20;5.00;;;8.40;99.90;;;;;;5083758;28;20448;-84
2022/02/03 15:08:02;;;;;;;6.67;4.40;;;8.50;99.90;;;;;;5084012;28;20448;-84
2022/02/03 15:13:48;;;;;;;6.07;4.10;;;8.40;99.90;;;;;;5102888;28;20444;-82
2022/02/03 15:15:46;;;;;;;7.57;5.30;;;8.50;99.90;;;;;;5090991;28;20941;-82
2022/02/03 15:18:13;;;;;;;8.80;5.30;;;8.40;99.90;;;;;;5085250;28;20448;-81
2022/02/03 15:20:39;;;;;;;6.67;4.50;;;8.50;99.90;;;;;;5083254;28;20550;-84
2022/02/03 15:23:06;;;;;;;7.87;4.83;;;8.60;99.90;;;;;;5100158;28;20506;-84
2022/02/03 15:25:32;;;;;;;10.27;4.10;;;8.70;99.90;;;;;;5099717;28;20182;-84
2022/02/03 15:27:58;;;;;;;7.20;4.80;;;8.80;99.90;;;;;;5082628;28;20424;-84
2022/02/03 15:30:24;;;;;;;7.33;4.50;;;8.90;99.90;;;;;;5082791;28;20194;-84
2022/02/03 15:32:50;;;;;;;6.97;4.43;;;8.90;99.90;;;;;;5082935;28;20444;-84
2022/02/03 15:35:43;;;;;;;4.77;3.50;;;8.80;99.90;;;;;;5083490;28;20457;-84
2022/02/03 15:38:13;;;;;;;7.10;4.23;;;8.80;99.90;;;;;;5083911;28;20416;-84
2022/02/03 15:40:39;;;;;;;9.37;5.30;;;8.80;99.90;;;;;;5082896;28;20421;-84
2022/02/03 15:43:08;;;;;;;8.10;4.93;;;8.70;99.90;;;;;;5082947;28;20467;-84
2022/02/03 15:45:41;;;;;;;12.33;4.47;;;8.60;99.90;;;;;;5082514;28;20542;-83
2022/02/03 15:48:29;;;;;;;6.40;5.00;;;8.70;99.90;;;;;;5082372;28;20409;-84
2022/02/03 15:56:50;;;;;;;10.67;4.90;;;8.50;99.90;;;;;;5100601;28;20462;-84
2022/02/03 16:17:29;;;;;;;9.23;4.93;;;8.40;99.90;;;;;;5099726;28;20415;-83
2022/02/03 16:20:05;;;;;;;10.17;5.40;;;8.30;99.90;;;;;;5078301;28;20812;-83
2022/02/03 16:25:06;;;;;;;11.30;4.90;;;8.20;99.90;;;;;;5102041;28;20448;-84
2022/02/03 16:52:39;;;;;;;8.07;4.93;;;8.20;99.90;;;;;;5089878;28;20404;-84
2022/02/03 16:55:09;;;;;;;8.33;5.20;;;8.20;99.90;;;;;;5088392;28;20418;-82
2022/02/03 16:57:35;;;;;;;7.50;5.43;;;8.10;99.90;;;;;;5106642;28;20411;-83
2022/02/03 17:00:06;;;;;;;8.17;5.33;;;8.10;99.90;;;;;;5089041;28;20439;-83
2022/02/03 17:02:32;;;;;;;9.97;5.63;;;8.10;99.90;;;;;;5089715;28;20216;-82
2022/02/03 17:04:58;;;;;;;7.87;5.87;;;8.10;99.90;;;;;;5107186;28;20436;-82
2022/02/03 17:07:24;;;;;;;8.33;5.80;;;8.00;99.90;;;;;;5089167;28;20190;-81
2022/02/03 17:09:50;;;;;;;9.53;5.50;;;8.00;99.90;;;;;;5089689;28;20438;-82
2022/02/03 17:12:17;;;;;;;7.20;5.70;;;8.00;99.90;;;;;;5089504;28;20958;-82
2022/02/03 17:14:44;;;;;;;13.53;5.17;;;8.00;99.90;;;;;;5088784;28;20534;-82
2022/02/03 17:17:10;;;;;;;9.83;6.57;;;8.10;99.90;;;;;;5090239;28;20424;-84
2022/02/03 17:19:39;;;;;;;9.47;6.00;;;8.00;99.90;;;;;;5107565;28;20416;-82
2022/02/03 17:22:06;;;;;;;8.50;5.37;;;8.00;99.90;;;;;;5108134;28;20431;-81
2022/02/03 17:24:34;;;;;;;10.80;6.60;;;8.00;99.90;;;;;;5091586;28;20486;-82
2022/02/03 17:27:07;;;;;;;8.37;5.40;;;8.00;99.90;;;;;;5092621;28;20454;-82
2022/02/03 17:29:56;;;;;;;12.40;7.60;;;8.10;99.90;;;;;;5093843;28;20412;-81
2022/02/03 17:45:11;;;;;;;9.00;6.30;;;8.10;99.90;;;;;;5110198;28;20438;-82
2022/02/03 18:03:04;;;;;;;9.80;6.80;;;8.30;99.90;;;;;;5103333;28;20822;-83
2022/02/03 18:29:48;;;;;;;9.83;6.20;;;8.10;99.90;;;;;;5105098;28;21096;-84
2022/02/03 18:51:08;;;;;;;10.50;7.67;;;8.20;99.90;;;;;;5094644;28;20482;-77
2022/02/03 19:23:25;;;;;;;11.97;7.40;;;7.90;99.90;;;;;;5093855;28;20497;-77
2022/02/03 20:10:38;;;;;;;11.10;7.37;;;8.00;99.90;;;;;;5092633;28;20531;-77
2022/02/03 20:13:04;;;;;;;11.47;7.43;;;8.10;99.90;;;;;;5074707;28;20198;-77
2022/02/03 20:15:35;;;;;;;16.97;8.80;;;8.10;99.90;;;;;;5074523;28;20461;-77
2022/02/03 20:18:01;;;;;;;10.33;7.37;;;8.10;99.90;;;;;;5074214;28;20452;-77
2022/02/03 20:20:26;;;;;;;10.60;7.50;;;8.10;99.90;;;;;;5074546;28;20429;-77
2022/02/03 20:22:52;;;;;;;11.07;8.20;;;8.10;99.90;;;;;;5074252;28;20194;-77
2022/02/03 20:25:18;;;;;;;14.13;9.27;;;8.00;99.90;;;;;;5074075;28;20206;-77
2022/02/03 20:27:44;;;;;;;11.63;7.93;;;7.90;99.90;;;;;;5074163;28;20193;-77
2022/02/03 20:30:11;;;;;;;15.50;8.77;;;7.90;99.90;;;;;;5074235;28;20490;-77
2022/02/03 20:32:37;;;;;;;14.87;8.37;;;7.80;99.90;;;;;;5074668;28;20233;-77
2022/02/03 20:35:04;;;;;;;14.63;9.20;;;7.80;99.90;;;;;;5074333;28;20416;-77
2022/02/03 20:37:30;;;;;;;14.23;8.73;;;7.80;99.90;;;;;;5074526;28;20420;-77
2022/02/03 20:39:55;;;;;;;14.27;8.80;;;7.90;99.90;;;;;;5074049;28;20450;-77
2022/02/03 20:42:21;;;;;;;12.00;7.50;;;7.90;99.90;;;;;;5074329;28;20602;-77
2022/02/03 20:44:49;;;;;;;14.43;10.30;;;7.90;99.90;;;;;;5074005;28;20435;-77
2022/02/03 20:47:15;;;;;;;12.83;8.40;;;7.90;99.90;;;;;;5073930;28;20178;-77
2022/02/03 20:49:41;;;;;;;15.67;9.60;;;7.90;99.90;;;;;;5073874;28;20815;-77
2022/02/03 20:52:08;;;;;;;15.43;9.60;;;7.90;99.90;;;;;;5074296;28;20430;-77
2022/02/03 20:54:34;;;;;;;14.30;9.20;;;8.00;99.90;;;;;;5073975;28;20469;-77
2022/02/03 20:57:00;;;;;;;12.90;8.77;;;8.00;99.90;;;;;;5074143;28;20424;-77
2022/02/03 20:59:47;;;;;;;17.97;10.10;;;8.00;99.90;;;;;;5074023;28;20574;-77
2022/02/03 21:02:22;;;;;;;13.87;9.40;;;7.90;99.90;;;;;;5092041;28;20412;-77
2022/02/03 21:04:59;;;;;;;16.07;10.70;;;7.80;99.90;;;;;;5074006;28;20416;-77
2022/02/03 21:07:28;;;;;;;17.10;11.23;;;7.80;99.90;;;;;;5074003;28;20429;-77
2022/02/03 21:09:54;;;;;;;18.67;10.07;;;7.80;99.90;;;;;;5073881;28;20425;-77
2022/02/03 21:12:20;;;;;;;14.87;10.37;;;7.80;99.90;;;;;;5073900;28;20451;-77
2022/02/03 21:14:48;;;;;;;16.10;10.03;;;7.70;99.90;;;;;;5073931;28;20408;-77
2022/02/03 21:17:14;;;;;;;18.23;10.30;;;7.70;99.90;;;;;;5073646;28;20243;-76
2022/02/03 21:19:40;;;;;;;14.43;10.03;;;7.70;99.90;;;;;;5073664;28;20943;-77
2022/02/03 21:22:05;;;;;;;15.50;10.70;;;7.60;99.90;;;;;;5073668;28;20227;-77
2022/02/03 21:24:31;;;;;;;15.57;9.87;;;7.70;99.90;;;;;;5077504;28;20183;-77
2022/02/03 21:26:59;;;;;;;13.90;9.17;;;7.70;99.90;;;;;;5077112;28;20190;-77
2022/02/03 21:29:26;;;;;;;14.73;10.03;;;7.70;99.90;;;;;;5077517;28;20188;-77
2022/02/03 21:31:52;;;;;;;15.27;9.77;;;7.70;99.90;;;;;;5077232;28;20472;-77
2022/02/03 21:34:21;;;;;;;15.87;11.57;;;7.80;99.90;;;;;;5077453;28;20525;-77
2022/02/03 21:36:53;;;;;;;18.70;11.77;;;7.80;99.90;;;;;;5077146;28;20174;-76
2022/02/03 21:39:19;;;;;;;17.37;11.10;;;7.70;99.90;;;;;;5077267;28;20485;-77
2022/02/03 21:41:45;;;;;;;13.87;10.03;;;7.80;99.90;;;;;;5077109;28;20527;-77
2022/02/03 21:44:14;;;;;;;14.43;9.53;;;7.80;99.90;;;;;;5077132;28;20214;-77
2022/02/03 21:46:41;;;;;;;17.27;10.30;;;7.80;99.90;;;;;;5076717;28;20923;-77
2022/02/03 21:49:07;;;;;;;18.80;10.10;;;7.80;99.90;;;;;;5077172;28;20424;-77
2022/02/03 21:51:39;;;;;;;15.97;10.43;;;7.70;99.90;;;;;;5076792;28;20471;-77
2022/02/03 21:54:05;;;;;;;13.63;9.30;;;7.70;99.90;;;;;;5076756;28;20205;-77
2022/02/03 21:56:31;;;;;;;14.10;10.00;;;7.70;99.90;;;;;;5076485;28;20495;-77
2022/02/03 21:58:57;;;;;;;13.70;9.67;;;7.60;99.90;;;;;;5076655;28;20187;-77
2022/02/03 22:01:26;;;;;;;13.87;9.63;;;7.70;99.90;;;;;;5076744;28;20194;-77
2022/02/03 22:03:53;;;;;;;13.77;8.90;;;7.60;99.90;;;;;;5076907;28;20202;-77
2022/02/03 22:06:19;;;;;;;15.70;9.80;;;7.60;99.90;;;;;;5076261;28;20424;-77
2022/02/03 22:08:44;;;;;;;12.87;8.17;;;7.60;99.90;;;;;;5076164;28;20412;-77
2022/02/03 22:11:10;;;;;;;13.70;9.13;;;7.60;99.90;;;;;;5076083;28;20206;-77
2022/02/03 22:13:38;;;;;;;14.80;9.50;;;7.60;99.90;;;;;;5076276;28;20259;-77
2022/02/03 22:16:11;;;;;;;13.83;9.77;;;7.60;99.90;;;;;;5076234;28;20232;-76
2022/02/03 22:18:37;;;;;;;15.60;10.53;;;7.60;99.90;;;;;;5076224;28;20420;-77
2022/02/03 22:21:11;;;;;;;18.60;11.67;;;7.50;99.90;;;;;;5075998;28;20416;-77
2022/02/03 22:23:52;;;;;;;13.70;9.93;;;7.60;99.90;;;;;;5076125;28;20440;-77
2022/02/03 22:45:21;;;;;;;15.53;9.83;;;7.70;99.90;;;;;;5093879;28;20557;-77
2022/02/03 22:50:16;;;;;;;13.47;9.00;;;7.70;99.90;;;;;;5093873;28;20809;-77
2022/02/03 22:52:44;;;;;;;15.60;9.07;;;7.70;99.90;;;;;;5075361;28;20436;-77
2022/02/03 22:55:12;;;;;;;25.40;10.60;;;7.70;99.90;;;;;;5075518;28;20424;-76
2022/02/03 22:57:39;;;;;;;19.20;10.53;;;7.70;99.90;;;;;;5075346;28;20420;-77
2022/02/03 23:00:15;;;;;;;15.50;9.73;;;7.60;99.90;;;;;;5075575;28;20428;-77
2022/02/03 23:02:41;;;;;;;17.30;10.10;;;7.70;99.90;;;;;;5075317;28;20451;-77
2022/02/03 23:05:09;;;;;;;12.47;8.10;;;7.60;99.90;;;;;;5075309;28;20432;-77
2022/02/03 23:08:16;;;;;;;16.27;9.33;;;7.70;99.90;;;;;;5075117;28;20484;-77
2022/02/03 23:10:26;;;;;;;14.10;9.30;;;7.70;99.90;;;;;;5092863;28;20498;-77
2022/02/03 23:18:21;;;;;;;13.20;8.80;;;7.80;99.90;;;;;;5093145;28;20185;-76
2022/02/03 23:21:11;;;;;;;11.93;7.77;;;7.80;99.90;;;;;;5075264;28;20482;-77
2022/02/03 23:23:32;;;;;;;14.83;8.60;;;7.90;99.90;;;;;;5093024;28;20448;-77
2022/02/03 23:25:59;;;;;;;11.30;7.30;;;7.90;99.90;;;;;;5075156;28;20442;-76
2022/02/03 23:28:31;;;;;;;13.50;8.10;;;7.90;99.90;;;;;;5074820;28;20186;-76
2022/02/03 23:30:57;;;;;;;15.20;8.23;;;7.90;99.90;;;;;;5074818;28;20464;-76
2022/02/03 23:33:24;;;;;;;13.47;8.20;;;8.00;99.90;;;;;;5075023;28;20456;-77
2022/02/03 23:35:50;;;;;;;11.57;7.93;;;7.90;99.90;;;;;;5074898;28;20466;-77
